Time,TemperatureF,DewpointF,PressureIn,WindDirection,WindDirectionDegrees,WindSpeedMPH,WindSpeedGustMPH,Humidity,HourlyPrecipIn,Conditions,Clouds,dailyrainin,SoftwareType,DateUTC
2013-04-09 11:03:00,78.0,72.0,29.90,South,187,2.0,13.0,82,0.00,,,0.00,,2013-04-09 16:03:00,
2013-04-09 11:13:00,78.0,72.0,29.90,South,187,2.0,13.0,82,0.00,,,0.00,,2013-04-09 16:13:00,
2013-04-09 11:23:00,78.0,72.0,29.91,SSW,203,4.0,16.0,82,0.00,,,0.00,,2013-04-09 16:23:00,
2013-04-09 11:33:00,79.0,72.0,29.91,SSW,213,5.0,13.0,80,0.00,,,0.00,,2013-04-09 16:33:00,
2013-04-09 11:53:00,79.0,72.0,29.92,WNW,284,2.0,8.0,80,0.00,,,0.00,,2013-04-09 16:53:00,
2013-04-09 12:02:00,79.0,72.0,29.92,SSW,211,5.0,12.0,79,0.00,,,0.00,,2013-04-09 17:02:00,
2013-04-09 12:12:00,80.0,72.0,29.91,South,172,4.0,10.0,78,0.00,,,0.00,,2013-04-09 17:12:00,
2013-04-09 12:23:00,80.0,72.0,29.91,South,172,4.0,10.0,78,0.00,,,0.00,,2013-04-09 17:23:00,
2013-04-09 12:32:00,80.0,72.0,29.91,South,172,4.0,10.0,78,0.00,,,0.00,,2013-04-09 17:32:00,
2013-04-09 12:42:00,80.0,72.0,29.91,South,172,4.0,10.0,78,0.00,,,0.00,,2013-04-09 17:42:00,
2013-04-09 12:54:00,81.0,73.0,29.90,South,178,4.0,9.0,76,0.00,,,0.00,,2013-04-09 17:54:00,
2013-04-09 13:00:00,82.0,72.0,29.88,SW,214,6.0,16.0,71,0.00,,,0.00,,2013-04-09 18:00:00,
2013-04-09 13:02:00,81.0,73.0,29.90,South,178,4.0,9.0,76,0.00,,,0.00,,2013-04-09 18:02:00,
2013-04-09 13:12:00,81.0,73.0,29.90,South,178,4.0,9.0,76,0.00,,,0.00,,2013-04-09 18:12:00,
2013-04-09 13:22:00,82.0,72.0,29.88,SW,214,6.0,16.0,71,0.00,,,0.00,,2013-04-09 18:22:00,
2013-04-09 13:32:00,82.0,72.0,29.88,SW,214,6.0,16.0,71,0.00,,,0.00,,2013-04-09 18:32:00,
2013-04-09 13:43:00,82.0,72.0,29.88,SW,214,6.0,16.0,71,0.00,,,0.00,,2013-04-09 18:43:00,
2013-04-09 13:53:00,82.0,72.0,29.88,SW,214,6.0,16.0,71,0.00,,,0.00,,2013-04-09 18:53:00,
2013-04-09 14:32:00,81.0,72.0,29.87,SSW,213,6.0,18.0,74,0.00,,,0.00,,2013-04-09 19:32:00,
2013-04-09 14:42:00,81.0,72.0,29.87,SSW,213,6.0,18.0,74,0.00,,,0.00,,2013-04-09 19:42:00,
2013-04-09 14:52:00,81.0,72.0,29.87,SSW,213,6.0,18.0,74,0.00,,,0.00,,2013-04-09 19:52:00,
2013-04-09 15:02:00,81.0,71.0,29.87,SW,230,5.0,17.0,72,0.00,,,0.00,,2013-04-09 20:02:00,
2013-04-09 15:12:00,82.0,72.0,29.86,SSW,202,5.0,13.0,71,0.00,,,0.00,,2013-04-09 20:12:00,
2013-04-09 15:22:00,82.0,72.0,29.86,SSW,202,5.0,13.0,71,0.00,,,0.00,,2013-04-09 20:22:00,
2013-04-09 15:33:00,82.0,72.0,29.86,SSW,206,3.0,14.0,73,0.00,,,0.00,,2013-04-09 20:33:00,
2013-04-09 15:42:00,82.0,72.0,29.86,SSW,206,3.0,14.0,73,0.00,,,0.00,,2013-04-09 20:42:00,
2013-04-09 15:52:00,81.0,72.0,29.85,SW,235,3.0,8.0,74,0.00,,,0.00,,2013-04-09 20:52:00,
2013-04-09 16:02:00,81.0,72.0,29.85,South,191,3.0,10.0,74,0.00,,,0.00,,2013-04-09 21:02:00,
2013-04-09 16:13:00,81.0,72.0,29.85,South,191,3.0,10.0,74,0.00,,,0.00,,2013-04-09 21:13:00,
2013-04-09 16:22:00,81.0,72.0,29.85,South,191,3.0,10.0,74,0.00,,,0.00,,2013-04-09 21:22:00,
2013-04-09 16:33:00,81.0,72.0,29.85,South,184,5.0,14.0,74,0.00,,,0.00,,2013-04-09 21:33:00,
2013-04-09 16:42:00,81.0,72.0,29.85,South,184,5.0,14.0,74,0.00,,,0.00,,2013-04-09 21:42:00,
2013-04-09 16:52:00,81.0,72.0,29.85,South,184,5.0,14.0,74,0.00,,,0.00,,2013-04-09 21:52:00,
2013-04-09 17:03:00,81.0,72.0,29.85,South,184,5.0,14.0,74,0.00,,,0.00,,2013-04-09 22:03:00,
2013-04-09 17:12:00,80.0,72.0,29.86,SW,215,2.0,10.0,76,0.00,,,0.00,,2013-04-09 22:12:00,
2013-04-09 17:23:00,80.0,72.0,29.86,SW,215,2.0,10.0,76,0.00,,,0.00,,2013-04-09 22:23:00,
2013-04-09 17:33:00,80.0,72.0,29.86,SW,215,2.0,10.0,76,0.00,,,0.00,,2013-04-09 22:33:00,
2013-04-09 17:43:00,80.0,72.0,29.86,SW,215,2.0,10.0,76,0.00,,,0.00,,2013-04-09 22:43:00,
2013-04-09 17:50:00,79.0,73.0,29.87,South,171,3.0,9.0,81,0.00,,,0.00,,2013-04-09 22:50:00,
2013-04-09 17:53:00,79.0,72.0,29.87,SW,219,2.0,8.0,80,0.00,,,0.00,,2013-04-09 22:53:00,
2013-04-09 18:02:00,79.0,72.0,29.87,SW,219,2.0,8.0,80,0.00,,,0.00,,2013-04-09 23:02:00,
2013-04-09 18:12:00,79.0,73.0,29.87,South,171,3.0,9.0,81,0.00,,,0.00,,2013-04-09 23:12:00,
2013-04-09 18:22:00,79.0,73.0,29.87,South,171,3.0,9.0,81,0.00,,,0.00,,2013-04-09 23:22:00,
2013-04-09 18:32:00,79.0,73.0,29.87,South,171,3.0,9.0,81,0.00,,,0.00,,2013-04-09 23:32:00,
2013-04-09 18:42:00,79.0,73.0,29.87,South,171,3.0,9.0,81,0.00,,,0.00,,2013-04-09 23:42:00,
2013-04-09 19:23:00,78.0,72.0,29.86,South,177,5.0,15.0,82,0.00,,,0.00,,2013-04-10 00:23:00,
2013-04-09 19:32:00,78.0,72.0,29.82,SSW,195,11.0,24.0,81,0.00,,,0.00,,2013-04-10 00:32:00,
2013-04-09 19:42:00,78.0,72.0,29.82,SSW,195,11.0,24.0,81,0.00,,,0.00,,2013-04-10 00:42:00,
2013-04-09 19:53:00,78.0,72.0,29.82,SSW,195,11.0,24.0,81,0.00,,,0.00,,2013-04-10 00:53:00,
2013-04-09 20:02:00,78.0,72.0,29.86,South,173,3.0,12.0,81,0.00,,,0.00,,2013-04-10 01:02:00,
2013-04-09 20:12:00,77.0,71.0,29.86,SSE,158,6.0,14.0,81,0.00,,,0.00,,2013-04-10 01:12:00,
2013-04-09 20:23:00,77.0,71.0,29.86,SSE,158,6.0,14.0,81,0.00,,,0.00,,2013-04-10 01:23:00,
2013-04-09 20:32:00,78.0,72.0,29.87,SSW,203,5.0,15.0,81,0.00,,,0.00,,2013-04-10 01:32:00,
2013-04-09 20:42:00,78.0,72.0,29.87,SSW,203,5.0,15.0,81,0.00,,,0.00,,2013-04-10 01:42:00,
2013-04-09 20:53:00,78.0,72.0,29.88,SSW,199,7.0,28.0,81,0.00,,,0.00,,2013-04-10 01:53:00,
2013-04-09 21:02:00,78.0,72.0,29.89,South,181,5.0,14.0,82,0.00,,,0.00,,2013-04-10 02:02:00,
2013-04-09 21:12:00,78.0,72.0,29.89,South,181,5.0,14.0,82,0.00,,,0.00,,2013-04-10 02:12:00,
2013-04-09 21:22:00,77.0,71.0,29.88,SSE,162,6.0,20.0,82,0.00,,,0.00,,2013-04-10 02:22:00,
2013-04-09 21:32:00,77.0,72.0,29.88,SSE,162,7.0,16.0,84,0.00,,,0.00,,2013-04-10 02:32:00,
2013-04-09 21:42:00,77.0,72.0,29.88,SSE,162,7.0,16.0,84,0.00,,,0.00,,2013-04-10 02:42:00,
2013-04-09 21:52:00,77.0,72.0,29.88,SSE,162,7.0,16.0,84,0.00,,,0.00,,2013-04-10 02:52:00,
2013-04-09 22:02:00,77.0,72.0,29.90,South,170,4.0,13.0,84,0.00,,,0.00,,2013-04-10 03:02:00,
2013-04-09 22:12:00,77.0,72.0,29.90,South,170,4.0,13.0,84,0.00,,,0.00,,2013-04-10 03:12:00,
2013-04-09 22:22:00,77.0,72.0,29.90,South,170,4.0,13.0,84,0.00,,,0.00,,2013-04-10 03:22:00,
2013-04-09 22:33:00,77.0,72.0,29.91,South,175,2.0,13.0,85,0.00,,,0.00,,2013-04-10 03:33:00,
2013-04-09 22:43:00,77.0,72.0,29.91,South,175,2.0,13.0,85,0.00,,,0.00,,2013-04-10 03:43:00,
2013-04-09 22:53:00,77.0,72.0,29.91,South,181,2.0,16.0,86,0.00,,,0.00,,2013-04-10 03:53:00,
2013-04-09 23:03:00,77.0,72.0,29.92,South,182,1.0,10.0,86,0.00,,,0.00,,2013-04-10 04:03:00,
2013-04-09 23:13:00,77.0,72.0,29.92,South,182,1.0,10.0,86,0.00,,,0.00,,2013-04-10 04:13:00,
2013-04-09 23:23:00,77.0,72.0,29.92,South,182,1.0,10.0,86,0.00,,,0.00,,2013-04-10 04:23:00,
2013-04-09 23:33:00,77.0,72.0,29.91,SSE,163,3.0,10.0,86,0.00,,,0.00,,2013-04-10 04:33:00,
2013-04-09 23:42:00,77.0,72.0,29.91,SSE,163,3.0,10.0,86,0.00,,,0.00,,2013-04-10 04:42:00,
2013-04-09 23:52:00,77.0,72.0,29.89,SSE,157,2.0,15.0,86,0.00,,,0.00,,2013-04-10 04:52:00,